sensor_id;sensor_type;location;lat;lon;timestamp;P1;durP1;ratioP1;P2;durP2;ratioP2
25905;SDS011;13713;52.552;13.204;2022-07-29T00:01:35;35.65;;;23.75;;
25905;SDS011;13713;52.552;13.204;2022-07-29T00:04:01;32.88;;;22.42;;
25905;SDS011;13713;52.552;13.204;2022-07-29T00:06:27;33.15;;;23.23;;
25905;SDS011;13713;52.552;13.204;2022-07-29T00:08:53;33.25;;;23.48;;
25905;SDS011;13713;52.552;13.204;2022-07-29T00:11:18;30.85;;;22.23;;
25905;SDS011;13713;52.552;13.204;2022-07-29T00:13:44;30.67;;;21.95;;
25905;SDS011;13713;52.552;13.204;2022-07-29T00:16:10;36.08;;;25.02;;
25905;SDS011;13713;52.552;13.204;2022-07-29T00:18:35;36.97;;;25.45;;
25905;SDS011;13713;52.552;13.204;2022-07-29T00:21:01;29.80;;;22.40;;
25905;SDS011;13713;52.552;13.204;2022-07-29T00:23:27;33.22;;;24.23;;
25905;SDS011;13713;52.552;13.204;2022-07-29T00:25:52;28.67;;;21.75;;
25905;SDS011;13713;52.552;13.204;2022-07-29T00:28:18;30.58;;;22.60;;
25905;SDS011;13713;52.552;13.204;2022-07-29T00:30:43;30.65;;;21.98;;
25905;SDS011;13713;52.552;13.204;2022-07-29T00:33:09;28.50;;;21.02;;
25905;SDS011;13713;52.552;13.204;2022-07-29T00:35:35;30.83;;;22.05;;
25905;SDS011;13713;52.552;13.204;2022-07-29T00:38:13;33.65;;;22.38;;
25905;SDS011;13713;52.552;13.204;2022-07-29T00:40:42;30.30;;;20.40;;
25905;SDS011;13713;52.552;13.204;2022-07-29T00:43:08;29.30;;;22.23;;
25905;SDS011;13713;52.552;13.204;2022-07-29T00:45:34;28.25;;;20.98;;
25905;SDS011;13713;52.552;13.204;2022-07-29T00:48:00;31.95;;;22.25;;
25905;SDS011;13713;52.552;13.204;2022-07-29T00:50:27;28.50;;;21.05;;
25905;SDS011;13713;52.552;13.204;2022-07-29T00:52:53;29.17;;;21.02;;
25905;SDS011;13713;52.552;13.204;2022-07-29T00:55:19;29.85;;;21.40;;
25905;SDS011;13713;52.552;13.204;2022-07-29T00:57:45;33.00;;;22.23;;
25905;SDS011;13713;52.552;13.204;2022-07-29T01:00:13;29.52;;;21.27;;
25905;SDS011;13713;52.552;13.204;2022-07-29T01:02:42;31.60;;;22.35;;
25905;SDS011;13713;52.552;13.204;2022-07-29T01:05:08;27.45;;;20.33;;
25905;SDS011;13713;52.552;13.204;2022-07-29T01:07:37;30.52;;;20.83;;
25905;SDS011;13713;52.552;13.204;2022-07-29T01:10:04;28.30;;;21.15;;
25905;SDS011;13713;52.552;13.204;2022-07-29T01:12:32;29.63;;;19.98;;
25905;SDS011;13713;52.552;13.204;2022-07-29T01:15:00;26.38;;;19.35;;
25905;SDS011;13713;52.552;13.204;2022-07-29T01:18:14;27.17;;;19.55;;
25905;SDS011;13713;52.552;13.204;2022-07-29T01:31:09;27.23;;;20.40;;
25905;SDS011;13713;52.552;13.204;2022-07-29T01:33:37;26.90;;;19.73;;
25905;SDS011;13713;52.552;13.204;2022-07-29T01:38:58;26.33;;;18.02;;
25905;SDS011;13713;52.552;13.204;2022-07-29T01:41:31;25.00;;;18.02;;
25905;SDS011;13713;52.552;13.204;2022-07-29T01:44:02;25.15;;;17.90;;
25905;SDS011;13713;52.552;13.204;2022-07-29T01:46:38;26.58;;;18.30;;
25905;SDS011;13713;52.552;13.204;2022-07-29T01:51:43;21.38;;;16.02;;
25905;SDS011;13713;52.552;13.204;2022-07-29T01:56:48;23.15;;;17.13;;
25905;SDS011;13713;52.552;13.204;2022-07-29T01:59:16;21.33;;;16.20;;
25905;SDS011;13713;52.552;13.204;2022-07-29T02:01:43;21.55;;;16.92;;
25905;SDS011;13713;52.552;13.204;2022-07-29T02:04:11;21.00;;;16.33;;
25905;SDS011;13713;52.552;13.204;2022-07-29T02:06:38;23.48;;;16.85;;
25905;SDS011;13713;52.552;13.204;2022-07-29T02:09:07;21.55;;;15.95;;
25905;SDS011;13713;52.552;13.204;2022-07-29T02:11:35;22.23;;;15.52;;
25905;SDS011;13713;52.552;13.204;2022-07-29T02:14:02;23.60;;;16.17;;
25905;SDS011;13713;52.552;13.204;2022-07-29T02:16:30;21.65;;;16.13;;
25905;SDS011;13713;52.552;13.204;2022-07-29T02:18:57;21.85;;;15.82;;
25905;SDS011;13713;52.552;13.204;2022-07-29T02:21:25;23.15;;;17.05;;
25905;SDS011;13713;52.552;13.204;2022-07-29T02:23:53;23.38;;;16.77;;
25905;SDS011;13713;52.552;13.204;2022-07-29T02:26:21;21.60;;;15.27;;
25905;SDS011;13713;52.552;13.204;2022-07-29T02:28:49;24.20;;;16.65;;
25905;SDS011;13713;52.552;13.204;2022-07-29T02:31:16;23.95;;;16.67;;
25905;SDS011;13713;52.552;13.204;2022-07-29T02:33:45;23.95;;;17.17;;
25905;SDS011;13713;52.552;13.204;2022-07-29T02:36:13;24.13;;;17.58;;
25905;SDS011;13713;52.552;13.204;2022-07-29T02:38:39;24.50;;;17.30;;
25905;SDS011;13713;52.552;13.204;2022-07-29T02:41:18;23.83;;;17.02;;
25905;SDS011;13713;52.552;13.204;2022-07-29T02:43:56;24.58;;;17.20;;
25905;SDS011;13713;52.552;13.204;2022-07-29T02:46:30;25.08;;;17.15;;
25905;SDS011;13713;52.552;13.204;2022-07-29T02:49:04;21.63;;;15.82;;
25905;SDS011;13713;52.552;13.204;2022-07-29T02:55:00;19.58;;;14.95;;
25905;SDS011;13713;52.552;13.204;2022-07-29T02:57:21;21.95;;;16.10;;
25905;SDS011;13713;52.552;13.204;2022-07-29T03:00:06;23.15;;;16.13;;
25905;SDS011;13713;52.552;13.204;2022-07-29T03:02:34;18.45;;;14.30;;
25905;SDS011;13713;52.552;13.204;2022-07-29T03:05:04;21.13;;;15.32;;
25905;SDS011;13713;52.552;13.204;2022-07-29T03:07:31;19.00;;;14.93;;
25905;SDS011;13713;52.552;13.204;2022-07-29T03:09:58;18.42;;;13.77;;
25905;SDS011;13713;52.552;13.204;2022-07-29T03:12:24;22.17;;;15.43;;
25905;SDS011;13713;52.552;13.204;2022-07-29T03:14:51;20.45;;;15.82;;
25905;SDS011;13713;52.552;13.204;2022-07-29T03:17:17;22.00;;;15.60;;
25905;SDS011;13713;52.552;13.204;2022-07-29T03:19:44;20.98;;;14.93;;
25905;SDS011;13713;52.552;13.204;2022-07-29T03:22:10;19.67;;;14.52;;
25905;SDS011;13713;52.552;13.204;2022-07-29T03:24:36;17.52;;;13.60;;
25905;SDS011;13713;52.552;13.204;2022-07-29T03:27:02;17.77;;;13.63;;
25905;SDS011;13713;52.552;13.204;2022-07-29T03:29:29;17.48;;;13.27;;
25905;SDS011;13713;52.552;13.204;2022-07-29T03:31:55;18.25;;;13.25;;
25905;SDS011;13713;52.552;13.204;2022-07-29T03:34:21;18.83;;;13.55;;
25905;SDS011;13713;52.552;13.204;2022-07-29T03:36:47;18.60;;;13.20;;
25905;SDS011;13713;52.552;13.204;2022-07-29T03:39:15;18.70;;;13.93;;
25905;SDS011;13713;52.552;13.204;2022-07-29T03:41:44;16.20;;;12.80;;
25905;SDS011;13713;52.552;13.204;2022-07-29T03:44:12;17.63;;;13.05;;
25905;SDS011;13713;52.552;13.204;2022-07-29T03:46:40;18.10;;;14.43;;
25905;SDS011;13713;52.552;13.204;2022-07-29T03:49:08;19.10;;;14.48;;
25905;SDS011;13713;52.552;13.204;2022-07-29T03:51:35;18.95;;;14.32;;
25905;SDS011;13713;52.552;13.204;2022-07-29T03:54:04;20.38;;;14.27;;
25905;SDS011;13713;52.552;13.204;2022-07-29T03:56:31;20.08;;;13.88;;
25905;SDS011;13713;52.552;13.204;2022-07-29T03:59:00;18.88;;;14.20;;
25905;SDS011;13713;52.552;13.204;2022-07-29T04:01:27;19.02;;;13.10;;
25905;SDS011;13713;52.552;13.204;2022-07-29T04:03:54;16.42;;;12.52;;
25905;SDS011;13713;52.552;13.204;2022-07-29T04:06:20;15.82;;;11.95;;
25905;SDS011;13713;52.552;13.204;2022-07-29T04:08:46;17.73;;;13.55;;
25905;SDS011;13713;52.552;13.204;2022-07-29T04:11:11;16.42;;;12.30;;
25905;SDS011;13713;52.552;13.204;2022-07-29T04:13:37;16.60;;;12.48;;
25905;SDS011;13713;52.552;13.204;2022-07-29T04:16:03;17.17;;;13.00;;
25905;SDS011;13713;52.552;13.204;2022-07-29T04:18:29;17.15;;;12.75;;
25905;SDS011;13713;52.552;13.204;2022-07-29T04:20:54;16.65;;;11.88;;
25905;SDS011;13713;52.552;13.204;2022-07-29T04:23:20;16.33;;;11.90;;
25905;SDS011;13713;52.552;13.204;2022-07-29T04:25:46;22.00;;;17.98;;
25905;SDS011;13713;52.552;13.204;2022-07-29T04:28:12;20.85;;;16.33;;
25905;SDS011;13713;52.552;13.204;2022-07-29T04:30:37;19.40;;;13.48;;
25905;SDS011;13713;52.552;13.204;2022-07-29T04:33:04;23.98;;;17.33;;
25905;SDS011;13713;52.552;13.204;2022-07-29T04:35:35;21.50;;;16.42;;
25905;SDS011;13713;52.552;13.204;2022-07-29T04:38:02;20.27;;;12.90;;
25905;SDS011;13713;52.552;13.204;2022-07-29T04:40:29;12.32;;;9.25;;
25905;SDS011;13713;52.552;13.204;2022-07-29T04:42:54;13.75;;;8.90;;
25905;SDS011;13713;52.552;13.204;2022-07-29T04:45:20;14.23;;;9.30;;
25905;SDS011;13713;52.552;13.204;2022-07-29T04:47:46;11.40;;;7.90;;
25905;SDS011;13713;52.552;13.204;2022-07-29T04:50:11;11.75;;;6.78;;
25905;SDS011;13713;52.552;13.204;2022-07-29T04:52:40;9.27;;;6.70;;
25905;SDS011;13713;52.552;13.204;2022-07-29T04:55:05;10.25;;;6.60;;
25905;SDS011;13713;52.552;13.204;2022-07-29T04:57:31;10.07;;;6.80;;
25905;SDS011;13713;52.552;13.204;2022-07-29T04:59:57;13.02;;;7.25;;
25905;SDS011;13713;52.552;13.204;2022-07-29T05:02:23;18.30;;;13.43;;
25905;SDS011;13713;52.552;13.204;2022-07-29T05:04:48;20.70;;;12.95;;
25905;SDS011;13713;52.552;13.204;2022-07-29T05:07:14;16.23;;;11.10;;
25905;SDS011;13713;52.552;13.204;2022-07-29T05:09:40;35.97;;;25.83;;
25905;SDS011;13713;52.552;13.204;2022-07-29T05:12:05;24.88;;;15.75;;
25905;SDS011;13713;52.552;13.204;2022-07-29T05:14:31;16.25;;;12.57;;
25905;SDS011;13713;52.552;13.204;2022-07-29T05:16:57;15.38;;;10.05;;
25905;SDS011;13713;52.552;13.204;2022-07-29T05:19:23;16.15;;;9.38;;
25905;SDS011;13713;52.552;13.204;2022-07-29T05:21:48;11.38;;;8.80;;
25905;SDS011;13713;52.552;13.204;2022-07-29T05:24:14;12.70;;;8.88;;
25905;SDS011;13713;52.552;13.204;2022-07-29T05:26:41;11.90;;;8.02;;
25905;SDS011;13713;52.552;13.204;2022-07-29T05:29:06;13.52;;;7.68;;
25905;SDS011;13713;52.552;13.204;2022-07-29T05:31:32;16.08;;;7.45;;
25905;SDS011;13713;52.552;13.204;2022-07-29T05:33:58;17.98;;;7.15;;
25905;SDS011;13713;52.552;13.204;2022-07-29T05:36:24;10.77;;;6.30;;
25905;SDS011;13713;52.552;13.204;2022-07-29T05:38:50;12.82;;;6.60;;
25905;SDS011;13713;52.552;13.204;2022-07-29T05:41:17;10.48;;;6.47;;
25905;SDS011;13713;52.552;13.204;2022-07-29T05:43:43;11.52;;;6.90;;
25905;SDS011;13713;52.552;13.204;2022-07-29T05:46:09;10.52;;;6.63;;
25905;SDS011;13713;52.552;13.204;2022-07-29T05:48:34;11.02;;;6.57;;
25905;SDS011;13713;52.552;13.204;2022-07-29T05:51:00;10.02;;;6.63;;
25905;SDS011;13713;52.552;13.204;2022-07-29T05:53:26;12.07;;;6.32;;
25905;SDS011;13713;52.552;13.204;2022-07-29T05:55:52;10.52;;;6.55;;
25905;SDS011;13713;52.552;13.204;2022-07-29T05:58:18;10.15;;;6.72;;
25905;SDS011;13713;52.552;13.204;2022-07-29T06:00:43;10.43;;;6.25;;
25905;SDS011;13713;52.552;13.204;2022-07-29T06:03:09;17.70;;;11.80;;
25905;SDS011;13713;52.552;13.204;2022-07-29T06:05:35;24.10;;;14.52;;
25905;SDS011;13713;52.552;13.204;2022-07-29T06:08:00;23.70;;;15.13;;
25905;SDS011;13713;52.552;13.204;2022-07-29T06:10:26;18.10;;;9.25;;
25905;SDS011;13713;52.552;13.204;2022-07-29T06:12:52;16.30;;;10.52;;
25905;SDS011;13713;52.552;13.204;2022-07-29T06:15:18;16.83;;;10.38;;
25905;SDS011;13713;52.552;13.204;2022-07-29T06:17:44;17.50;;;10.95;;
25905;SDS011;13713;52.552;13.204;2022-07-29T06:20:10;19.73;;;13.15;;
25905;SDS011;13713;52.552;13.204;2022-07-29T06:22:35;21.38;;;13.73;;
25905;SDS011;13713;52.552;13.204;2022-07-29T06:25:02;24.45;;;12.82;;
25905;SDS011;13713;52.552;13.204;2022-07-29T06:27:28;24.15;;;13.18;;
25905;SDS011;13713;52.552;13.204;2022-07-29T06:29:55;31.27;;;18.55;;
25905;SDS011;13713;52.552;13.204;2022-07-29T06:32:21;45.33;;;25.70;;
25905;SDS011;13713;52.552;13.204;2022-07-29T06:34:47;58.92;;;33.42;;
25905;SDS011;13713;52.552;13.204;2022-07-29T06:37:13;49.00;;;27.50;;
25905;SDS011;13713;52.552;13.204;2022-07-29T06:39:39;33.42;;;18.60;;
25905;SDS011;13713;52.552;13.204;2022-07-29T06:42:05;29.23;;;14.38;;
25905;SDS011;13713;52.552;13.204;2022-07-29T06:44:31;48.33;;;29.67;;
25905;SDS011;13713;52.552;13.204;2022-07-29T06:47:00;30.40;;;18.40;;
25905;SDS011;13713;52.552;13.204;2022-07-29T06:49:26;33.17;;;20.02;;
25905;SDS011;13713;52.552;13.204;2022-07-29T06:51:52;27.88;;;15.73;;
25905;SDS011;13713;52.552;13.204;2022-07-29T06:54:19;32.03;;;19.48;;
25905;SDS011;13713;52.552;13.204;2022-07-29T06:56:45;35.80;;;22.05;;
25905;SDS011;13713;52.552;13.204;2022-07-29T06:59:11;40.03;;;22.55;;
25905;SDS011;13713;52.552;13.204;2022-07-29T07:01:37;38.83;;;21.75;;
25905;SDS011;13713;52.552;13.204;2022-07-29T07:04:04;30.75;;;19.92;;
25905;SDS011;13713;52.552;13.204;2022-07-29T07:06:29;28.52;;;17.83;;
25905;SDS011;13713;52.552;13.204;2022-07-29T07:08:55;31.92;;;17.52;;
25905;SDS011;13713;52.552;13.204;2022-07-29T07:11:20;41.22;;;21.92;;
25905;SDS011;13713;52.552;13.204;2022-07-29T07:13:46;72.68;;;41.85;;
25905;SDS011;13713;52.552;13.204;2022-07-29T07:16:12;53.70;;;32.28;;
25905;SDS011;13713;52.552;13.204;2022-07-29T07:18:37;37.00;;;22.25;;
25905;SDS011;13713;52.552;13.204;2022-07-29T07:21:03;42.47;;;22.00;;
25905;SDS011;13713;52.552;13.204;2022-07-29T07:23:30;35.95;;;19.60;;
25905;SDS011;13713;52.552;13.204;2022-07-29T07:25:55;35.75;;;20.48;;
25905;SDS011;13713;52.552;13.204;2022-07-29T07:28:21;38.80;;;20.30;;
25905;SDS011;13713;52.552;13.204;2022-07-29T07:30:47;27.23;;;17.10;;
25905;SDS011;13713;52.552;13.204;2022-07-29T07:33:12;33.28;;;16.80;;
25905;SDS011;13713;52.552;13.204;2022-07-29T07:35:39;28.25;;;16.42;;
25905;SDS011;13713;52.552;13.204;2022-07-29T07:38:05;39.08;;;22.35;;
25905;SDS011;13713;52.552;13.204;2022-07-29T07:40:31;46.33;;;25.40;;
25905;SDS011;13713;52.552;13.204;2022-07-29T07:42:56;47.22;;;24.67;;
25905;SDS011;13713;52.552;13.204;2022-07-29T07:45:22;44.08;;;23.50;;
25905;SDS011;13713;52.552;13.204;2022-07-29T07:47:48;40.90;;;22.33;;
25905;SDS011;13713;52.552;13.204;2022-07-29T07:50:14;37.20;;;19.27;;
25905;SDS011;13713;52.552;13.204;2022-07-29T07:52:46;38.63;;;19.83;;
25905;SDS011;13713;52.552;13.204;2022-07-29T07:55:17;30.40;;;17.58;;
25905;SDS011;13713;52.552;13.204;2022-07-29T07:57:43;37.80;;;17.35;;
25905;SDS011;13713;52.552;13.204;2022-07-29T08:00:10;36.10;;;16.80;;
25905;SDS011;13713;52.552;13.204;2022-07-29T08:02:38;45.45;;;17.27;;
25905;SDS011;13713;52.552;13.204;2022-07-29T08:05:04;51.47;;;25.23;;
25905;SDS011;13713;52.552;13.204;2022-07-29T08:07:31;59.15;;;30.75;;
25905;SDS011;13713;52.552;13.204;2022-07-29T08:09:57;52.03;;;27.77;;
25905;SDS011;13713;52.552;13.204;2022-07-29T08:12:23;52.63;;;24.25;;
25905;SDS011;13713;52.552;13.204;2022-07-29T08:14:48;41.85;;;19.27;;
25905;SDS011;13713;52.552;13.204;2022-07-29T08:17:14;33.88;;;15.95;;
25905;SDS011;13713;52.552;13.204;2022-07-29T08:19:40;32.38;;;14.98;;
25905;SDS011;13713;52.552;13.204;2022-07-29T08:22:06;33.92;;;15.02;;
25905;SDS011;13713;52.552;13.204;2022-07-29T08:24:31;31.35;;;13.38;;
25905;SDS011;13713;52.552;13.204;2022-07-29T08:27:09;32.45;;;13.90;;
25905;SDS011;13713;52.552;13.204;2022-07-29T08:29:35;32.33;;;15.18;;
25905;SDS011;13713;52.552;13.204;2022-07-29T08:32:02;40.53;;;16.75;;
25905;SDS011;13713;52.552;13.204;2022-07-29T08:34:29;40.65;;;16.95;;
25905;SDS011;13713;52.552;13.204;2022-07-29T08:36:55;35.03;;;15.20;;
25905;SDS011;13713;52.552;13.204;2022-07-29T08:39:21;76.20;;;38.83;;
25905;SDS011;13713;52.552;13.204;2022-07-29T08:41:47;80.35;;;42.40;;
25905;SDS011;13713;52.552;13.204;2022-07-29T08:44:15;55.95;;;27.08;;
25905;SDS011;13713;52.552;13.204;2022-07-29T08:46:41;40.00;;;18.55;;
25905;SDS011;13713;52.552;13.204;2022-07-29T08:49:07;35.58;;;17.10;;
25905;SDS011;13713;52.552;13.204;2022-07-29T08:51:33;46.22;;;25.45;;
25905;SDS011;13713;52.552;13.204;2022-07-29T08:54:01;45.58;;;26.50;;
25905;SDS011;13713;52.552;13.204;2022-07-29T08:56:27;51.17;;;26.25;;
25905;SDS011;13713;52.552;13.204;2022-07-29T08:58:53;47.63;;;26.77;;
25905;SDS011;13713;52.552;13.204;2022-07-29T09:01:23;53.85;;;29.05;;
25905;SDS011;13713;52.552;13.204;2022-07-29T09:03:50;61.40;;;27.23;;
25905;SDS011;13713;52.552;13.204;2022-07-29T09:06:21;86.00;;;46.13;;
25905;SDS011;13713;52.552;13.204;2022-07-29T09:08:48;65.30;;;34.47;;
25905;SDS011;13713;52.552;13.204;2022-07-29T09:11:14;58.63;;;30.75;;
25905;SDS011;13713;52.552;13.204;2022-07-29T09:13:40;52.00;;;26.13;;
25905;SDS011;13713;52.552;13.204;2022-07-29T09:16:06;42.35;;;21.55;;
25905;SDS011;13713;52.552;13.204;2022-07-29T09:18:42;48.03;;;22.58;;
25905;SDS011;13713;52.552;13.204;2022-07-29T09:21:10;47.58;;;23.50;;
25905;SDS011;13713;52.552;13.204;2022-07-29T09:24:10;84.07;;;48.30;;
25905;SDS011;13713;52.552;13.204;2022-07-29T09:26:39;61.47;;;31.48;;
25905;SDS011;13713;52.552;13.204;2022-07-29T09:29:12;66.32;;;30.60;;
25905;SDS011;13713;52.552;13.204;2022-07-29T09:31:43;61.05;;;25.30;;
25905;SDS011;13713;52.552;13.204;2022-07-29T09:34:11;46.58;;;18.85;;
25905;SDS011;13713;52.552;13.204;2022-07-29T09:36:46;56.88;;;30.90;;
25905;SDS011;13713;52.552;13.204;2022-07-29T09:39:13;75.47;;;40.15;;
25905;SDS011;13713;52.552;13.204;2022-07-29T09:41:59;41.85;;;22.02;;
25905;SDS011;13713;52.552;13.204;2022-07-29T09:44:26;39.17;;;20.52;;
25905;SDS011;13713;52.552;13.204;2022-07-29T09:47:05;41.40;;;18.95;;
25905;SDS011;13713;52.552;13.204;2022-07-29T09:49:34;37.58;;;16.77;;
25905;SDS011;13713;52.552;13.204;2022-07-29T09:52:07;45.13;;;19.90;;
25905;SDS011;13713;52.552;13.204;2022-07-29T09:54:34;49.88;;;20.88;;
25905;SDS011;13713;52.552;13.204;2022-07-29T09:57:02;46.70;;;20.77;;
25905;SDS011;13713;52.552;13.204;2022-07-29T09:59:34;49.72;;;20.90;;
25905;SDS011;13713;52.552;13.204;2022-07-29T10:02:01;60.45;;;31.00;;
25905;SDS011;13713;52.552;13.204;2022-07-29T10:04:36;43.00;;;16.33;;
25905;SDS011;13713;52.552;13.204;2022-07-29T10:07:06;33.63;;;14.40;;
25905;SDS011;13713;52.552;13.204;2022-07-29T10:09:32;42.58;;;16.25;;
25905;SDS011;13713;52.552;13.204;2022-07-29T10:12:11;39.80;;;15.85;;
25905;SDS011;13713;52.552;13.204;2022-07-29T10:14:41;34.10;;;17.75;;
25905;SDS011;13713;52.552;13.204;2022-07-29T10:17:07;40.72;;;17.02;;
25905;SDS011;13713;52.552;13.204;2022-07-29T10:19:35;42.03;;;17.80;;
25905;SDS011;13713;52.552;13.204;2022-07-29T10:22:03;47.65;;;18.23;;
25905;SDS011;13713;52.552;13.204;2022-07-29T10:24:33;45.72;;;17.35;;
25905;SDS011;13713;52.552;13.204;2022-07-29T10:27:01;39.58;;;15.18;;
25905;SDS011;13713;52.552;13.204;2022-07-29T10:29:28;35.78;;;14.15;;
25905;SDS011;13713;52.552;13.204;2022-07-29T10:32:05;41.33;;;14.48;;
25905;SDS011;13713;52.552;13.204;2022-07-29T10:34:51;102.97;;;52.30;;
25905;SDS011;13713;52.552;13.204;2022-07-29T10:37:26;106.00;;;38.35;;
25905;SDS011;13713;52.552;13.204;2022-07-29T10:43:17;119.97;;;40.70;;
25905;SDS011;13713;52.552;13.204;2022-07-29T10:45:49;97.50;;;41.63;;
25905;SDS011;13713;52.552;13.204;2022-07-29T10:48:21;106.95;;;37.25;;
25905;SDS011;13713;52.552;13.204;2022-07-29T10:53:48;80.22;;;31.02;;
25905;SDS011;13713;52.552;13.204;2022-07-29T11:01:43;57.60;;;19.98;;
25905;SDS011;13713;52.552;13.204;2022-07-29T11:04:09;61.80;;;21.70;;
25905;SDS011;13713;52.552;13.204;2022-07-29T11:09:25;50.47;;;19.40;;
25905;SDS011;13713;52.552;13.204;2022-07-29T11:11:52;51.05;;;20.23;;
25905;SDS011;13713;52.552;13.204;2022-07-29T11:15:03;58.50;;;21.10;;
25905;SDS011;13713;52.552;13.204;2022-07-29T11:17:19;42.05;;;16.15;;
25905;SDS011;13713;52.552;13.204;2022-07-29T11:19:45;40.92;;;14.60;;
25905;SDS011;13713;52.552;13.204;2022-07-29T11:22:11;32.90;;;14.20;;
25905;SDS011;13713;52.552;13.204;2022-07-29T11:25:12;27.38;;;11.90;;
25905;SDS011;13713;52.552;13.204;2022-07-29T11:27:42;30.17;;;12.43;;
25905;SDS011;13713;52.552;13.204;2022-07-29T11:30:09;50.65;;;29.05;;
25905;SDS011;13713;52.552;13.204;2022-07-29T11:32:37;50.30;;;24.75;;
25905;SDS011;13713;52.552;13.204;2022-07-29T11:35:22;36.63;;;18.48;;
25905;SDS011;13713;52.552;13.204;2022-07-29T11:38:22;27.70;;;15.48;;
25905;SDS011;13713;52.552;13.204;2022-07-29T11:43:46;33.50;;;15.77;;
25905;SDS011;13713;52.552;13.204;2022-07-29T11:46:12;39.75;;;17.48;;
25905;SDS011;13713;52.552;13.204;2022-07-29T11:48:41;37.28;;;18.60;;
25905;SDS011;13713;52.552;13.204;2022-07-29T11:51:11;43.17;;;21.05;;
25905;SDS011;13713;52.552;13.204;2022-07-29T11:53:37;45.85;;;21.20;;
25905;SDS011;13713;52.552;13.204;2022-07-29T11:56:04;34.53;;;18.88;;
25905;SDS011;13713;52.552;13.204;2022-07-29T11:58:33;37.20;;;17.80;;
25905;SDS011;13713;52.552;13.204;2022-07-29T12:01:00;26.73;;;13.68;;
25905;SDS011;13713;52.552;13.204;2022-07-29T12:03:27;29.08;;;14.73;;
25905;SDS011;13713;52.552;13.204;2022-07-29T12:05:53;32.85;;;15.10;;
25905;SDS011;13713;52.552;13.204;2022-07-29T12:08:20;38.33;;;15.88;;
25905;SDS011;13713;52.552;13.204;2022-07-29T12:10:48;31.80;;;13.48;;
25905;SDS011;13713;52.552;13.204;2022-07-29T12:13:16;27.58;;;12.60;;
25905;SDS011;13713;52.552;13.204;2022-07-29T12:15:56;40.90;;;21.63;;
25905;SDS011;13713;52.552;13.204;2022-07-29T12:18:23;34.38;;;19.33;;
25905;SDS011;13713;52.552;13.204;2022-07-29T12:20:49;42.75;;;20.67;;
25905;SDS011;13713;52.552;13.204;2022-07-29T12:23:22;38.67;;;20.73;;
25905;SDS011;13713;52.552;13.204;2022-07-29T12:25:48;39.97;;;20.55;;
25905;SDS011;13713;52.552;13.204;2022-07-29T12:28:14;39.83;;;21.65;;
25905;SDS011;13713;52.552;13.204;2022-07-29T12:30:44;38.10;;;21.30;;
25905;SDS011;13713;52.552;13.204;2022-07-29T12:33:13;37.15;;;20.15;;
25905;SDS011;13713;52.552;13.204;2022-07-29T12:35:48;30.75;;;15.13;;
25905;SDS011;13713;52.552;13.204;2022-07-29T12:38:16;29.23;;;16.08;;
25905;SDS011;13713;52.552;13.204;2022-07-29T12:40:42;29.13;;;15.52;;
25905;SDS011;13713;52.552;13.204;2022-07-29T12:43:16;28.85;;;14.50;;
25905;SDS011;13713;52.552;13.204;2022-07-29T12:45:44;25.63;;;14.02;;
25905;SDS011;13713;52.552;13.204;2022-07-29T12:48:12;28.75;;;14.70;;
25905;SDS011;13713;52.552;13.204;2022-07-29T12:50:54;23.25;;;14.20;;
25905;SDS011;13713;52.552;13.204;2022-07-29T12:53:22;23.23;;;13.45;;
25905;SDS011;13713;52.552;13.204;2022-07-29T12:55:49;22.33;;;12.70;;
25905;SDS011;13713;52.552;13.204;2022-07-29T12:58:26;20.00;;;13.02;;
25905;SDS011;13713;52.552;13.204;2022-07-29T13:01:00;28.27;;;15.00;;
25905;SDS011;13713;52.552;13.204;2022-07-29T13:11:39;48.00;;;18.30;;
25905;SDS011;13713;52.552;13.204;2022-07-29T13:14:10;26.38;;;18.40;;
25905;SDS011;13713;52.552;13.204;2022-07-29T13:16:37;23.42;;;13.38;;
25905;SDS011;13713;52.552;13.204;2022-07-29T13:22:11;14.98;;;11.30;;
25905;SDS011;13713;52.552;13.204;2022-07-29T13:24:51;14.77;;;11.75;;
25905;SDS011;13713;52.552;13.204;2022-07-29T13:27:23;19.40;;;11.93;;
25905;SDS011;13713;52.552;13.204;2022-07-29T13:29:51;24.10;;;11.20;;
25905;SDS011;13713;52.552;13.204;2022-07-29T13:32:18;16.58;;;10.45;;
25905;SDS011;13713;52.552;13.204;2022-07-29T13:34:47;17.27;;;11.02;;
25905;SDS011;13713;52.552;13.204;2022-07-29T13:37:12;14.15;;;10.30;;
25905;SDS011;13713;52.552;13.204;2022-07-29T13:39:38;14.70;;;9.48;;
25905;SDS011;13713;52.552;13.204;2022-07-29T13:42:04;12.63;;;9.80;;
25905;SDS011;13713;52.552;13.204;2022-07-29T13:44:32;12.45;;;8.50;;
25905;SDS011;13713;52.552;13.204;2022-07-29T13:46:57;13.63;;;9.15;;
25905;SDS011;13713;52.552;13.204;2022-07-29T13:49:26;14.63;;;8.45;;
25905;SDS011;13713;52.552;13.204;2022-07-29T13:51:52;13.20;;;8.95;;
25905;SDS011;13713;52.552;13.204;2022-07-29T13:54:18;15.77;;;8.27;;
25905;SDS011;13713;52.552;13.204;2022-07-29T13:56:44;15.48;;;8.50;;
25905;SDS011;13713;52.552;13.204;2022-07-29T13:59:10;16.35;;;9.25;;
25905;SDS011;13713;52.552;13.204;2022-07-29T14:01:35;16.58;;;8.80;;
25905;SDS011;13713;52.552;13.204;2022-07-29T14:04:01;14.30;;;8.68;;
25905;SDS011;13713;52.552;13.204;2022-07-29T14:06:27;12.93;;;8.48;;
25905;SDS011;13713;52.552;13.204;2022-07-29T14:08:53;12.18;;;8.32;;
25905;SDS011;13713;52.552;13.204;2022-07-29T14:11:18;14.55;;;9.45;;
25905;SDS011;13713;52.552;13.204;2022-07-29T14:13:44;13.98;;;9.18;;
25905;SDS011;13713;52.552;13.204;2022-07-29T14:16:10;15.82;;;8.93;;
25905;SDS011;13713;52.552;13.204;2022-07-29T14:18:35;13.68;;;8.25;;
25905;SDS011;13713;52.552;13.204;2022-07-29T14:21:01;16.85;;;9.05;;
25905;SDS011;13713;52.552;13.204;2022-07-29T14:23:27;15.43;;;8.70;;
25905;SDS011;13713;52.552;13.204;2022-07-29T14:25:53;14.85;;;8.35;;
25905;SDS011;13713;52.552;13.204;2022-07-29T14:28:18;13.30;;;7.75;;
25905;SDS011;13713;52.552;13.204;2022-07-29T14:30:44;10.75;;;7.22;;
25905;SDS011;13713;52.552;13.204;2022-07-29T14:33:10;11.32;;;7.57;;
25905;SDS011;13713;52.552;13.204;2022-07-29T14:35:35;13.27;;;7.90;;
25905;SDS011;13713;52.552;13.204;2022-07-29T14:38:01;10.75;;;7.30;;
25905;SDS011;13713;52.552;13.204;2022-07-29T14:40:27;11.70;;;7.43;;
25905;SDS011;13713;52.552;13.204;2022-07-29T14:42:52;9.98;;;6.80;;
25905;SDS011;13713;52.552;13.204;2022-07-29T14:45:18;17.77;;;7.93;;
25905;SDS011;13713;52.552;13.204;2022-07-29T14:47:44;14.02;;;7.75;;
25905;SDS011;13713;52.552;13.204;2022-07-29T14:50:09;15.45;;;7.38;;
25905;SDS011;13713;52.552;13.204;2022-07-29T14:52:35;10.95;;;7.13;;
25905;SDS011;13713;52.552;13.204;2022-07-29T14:55:01;13.75;;;7.97;;
25905;SDS011;13713;52.552;13.204;2022-07-29T14:57:28;14.00;;;7.85;;
25905;SDS011;13713;52.552;13.204;2022-07-29T14:59:54;12.98;;;6.43;;
25905;SDS011;13713;52.552;13.204;2022-07-29T15:02:20;13.82;;;7.47;;
25905;SDS011;13713;52.552;13.204;2022-07-29T15:04:45;13.00;;;7.28;;
25905;SDS011;13713;52.552;13.204;2022-07-29T15:07:12;13.05;;;7.03;;